Time;durP1;ratioP1;P1;durP2;ratioP2;P2;SDS_P1;SDS_P2;PMS_P1;PMS_P2;Temp;Humidity;BMP_temperature;BMP_pressure;BME280_temperature;BME280_humidity;BME280_pressure;Samples;Min_cycle;Max_cycle;Signal;HPM_P1;HPM_P2
2022/01/11 00:00:44;;;;;;;1.40;1.30;;;;;;;;;;5133263;27;20244;-88
2022/01/11 00:03:11;;;;;;;1.17;1.17;;;;;;;;;;5133762;27;20194;-88
2022/01/11 00:05:44;;;;;;;1.00;1.00;;;;;;;;;;5133679;27;20263;-88
2022/01/11 00:08:13;;;;;;;1.40;1.30;;;;;;;;;;5133899;27;20189;-88
2022/01/11 00:10:48;;;;;;;1.50;1.40;;;;;;;;;;5133531;27;20195;-90
2022/01/11 00:13:18;;;;;;;1.00;1.00;;;;;;;;;;5133935;27;20218;-88
2022/01/11 00:15:46;;;;;;;1.00;1.00;;;;;;;;;;5133524;27;20226;-89
2022/01/11 00:18:13;;;;;;;1.27;1.00;;;;;;;;;;5133506;27;20289;-88
2022/01/11 00:20:41;;;;;;;1.70;1.60;;;;;;;;;;5133672;27;20191;-88
2022/01/11 00:25:54;;;;;;;1.03;1.03;;;;;;;;;;5133639;28;20182;-88
2022/01/11 00:28:25;;;;;;;0.90;0.90;;;;;;;;;;5133596;27;20211;-88
2022/01/11 00:30:52;;;;;;;0.90;0.90;;;;;;;;;;5133723;27;20248;-87
2022/01/11 00:33:25;;;;;;;1.00;1.00;;;;;;;;;;5133298;27;20205;-88
2022/01/11 00:35:59;;;;;;;1.13;1.10;;;;;;;;;;5133178;27;20294;-88
2022/01/11 00:38:28;;;;;;;1.10;1.10;;;;;;;;;;5133298;27;20194;-87
2022/01/11 00:40:57;;;;;;;1.27;1.17;;;;;;;;;;5133139;27;20187;-87
2022/01/11 00:43:27;;;;;;;1.03;0.93;;;;;;;;;;5133386;27;20593;-87
2022/01/11 00:45:57;;;;;;;0.90;0.90;;;;;;;;;;5133176;27;20222;-87
2022/01/11 00:48:25;;;;;;;1.23;0.90;;;;;;;;;;5133524;27;20622;-88
2022/01/11 00:50:53;;;;;;;0.90;0.90;;;;;;;;;;5133229;27;20199;-88
2022/01/11 00:53:20;;;;;;;1.10;1.10;;;;;;;;;;5133194;27;20663;-87
2022/01/11 00:55:48;;;;;;;0.70;0.70;;;;;;;;;;5133201;27;20277;-87
2022/01/11 00:58:16;;;;;;;1.17;1.17;;;;;;;;;;5132996;27;20203;-87
2022/01/11 01:00:46;;;;;;;0.83;0.83;;;;;;;;;;5133229;27;20209;-87
2022/01/11 01:03:13;;;;;;;1.27;1.17;;;;;;;;;;5132364;27;20205;-87
2022/01/11 01:05:42;;;;;;;1.23;1.20;;;;;;;;;;5132789;27;20191;-87
2022/01/11 01:08:10;;;;;;;1.50;1.40;;;;;;;;;;5133228;27;20194;-87
2022/01/11 01:10:39;;;;;;;1.47;1.37;;;;;;;;;;5133103;27;20629;-87
2022/01/11 01:13:13;;;;;;;1.50;1.40;;;;;;;;;;5135377;27;20579;-87
2022/01/11 01:15:40;;;;;;;1.60;1.50;;;;;;;;;;5136486;27;20686;-88
2022/01/11 01:18:11;;;;;;;2.07;1.87;;;;;;;;;;5136950;27;20218;-87
2022/01/11 01:20:38;;;;;;;1.57;1.47;;;;;;;;;;5137163;27;20189;-87
2022/01/11 01:23:05;;;;;;;1.50;1.40;;;;;;;;;;5136474;27;20190;-87
2022/01/11 01:25:34;;;;;;;1.23;1.13;;;;;;;;;;5136694;27;20258;-87
2022/01/11 01:28:01;;;;;;;1.30;1.20;;;;;;;;;;5136382;27;20240;-87
2022/01/11 01:30:28;;;;;;;1.10;1.10;;;;;;;;;;5136347;27;20199;-87
2022/01/11 01:32:55;;;;;;;1.33;1.23;;;;;;;;;;5136188;27;20195;-87
2022/01/11 01:35:29;;;;;;;1.30;1.20;;;;;;;;;;5136064;27;20218;-88
2022/01/11 01:37:56;;;;;;;1.00;1.00;;;;;;;;;;5136180;27;20195;-87
2022/01/11 01:40:24;;;;;;;2.30;1.50;;;;;;;;;;5136140;27;20198;-87
2022/01/11 01:42:51;;;;;;;1.40;1.30;;;;;;;;;;5136404;27;20191;-87
2022/01/11 01:45:23;;;;;;;1.30;1.20;;;;;;;;;;5136228;27;20222;-87
2022/01/11 01:47:57;;;;;;;1.60;1.50;;;;;;;;;;5136325;27;20182;-88
2022/01/11 01:50:26;;;;;;;1.30;1.20;;;;;;;;;;5135827;27;20187;-87
2022/01/11 01:52:53;;;;;;;2.30;1.50;;;;;;;;;;5135811;27;20195;-87
2022/01/11 01:55:21;;;;;;;1.57;1.47;;;;;;;;;;5135617;27;20218;-87
2022/01/11 01:57:48;;;;;;;1.43;1.33;;;;;;;;;;5135960;27;20199;-87
2022/01/11 02:00:17;;;;;;;1.27;1.17;;;;;;;;;;5135962;27;20638;-86
2022/01/11 02:02:44;;;;;;;1.20;1.10;;;;;;;;;;5135685;27;20203;-87
2022/01/11 02:05:12;;;;;;;1.30;1.20;;;;;;;;;;5135448;27;20202;-87
2022/01/11 02:07:40;;;;;;;1.30;1.20;;;;;;;;;;5135653;27;20687;-87
2022/01/11 02:10:09;;;;;;;1.47;1.37;;;;;;;;;;5136136;27;20216;-87
2022/01/11 02:12:37;;;;;;;1.53;1.43;;;;;;;;;;5135509;27;20271;-87
2022/01/11 02:15:05;;;;;;;1.20;1.20;;;;;;;;;;5135522;27;20226;-87
2022/01/11 02:17:34;;;;;;;2.10;1.00;;;;;;;;;;5135517;27;20198;-87
2022/01/11 02:20:01;;;;;;;0.90;0.90;;;;;;;;;;5135362;27;20267;-87
2022/01/11 02:22:30;;;;;;;1.00;1.00;;;;;;;;;;5135163;27;20194;-86
2022/01/11 02:24:57;;;;;;;1.40;1.30;;;;;;;;;;5134783;27;20226;-87
2022/01/11 02:27:24;;;;;;;1.10;1.00;;;;;;;;;;5135308;27;20677;-87
2022/01/11 02:29:52;;;;;;;1.70;1.57;;;;;;;;;;5134924;27;20255;-87
2022/01/11 02:32:19;;;;;;;1.63;1.50;;;;;;;;;;5135119;27;20199;-87
2022/01/11 02:34:46;;;;;;;4.97;3.57;;;;;;;;;;5134884;27;20195;-87
2022/01/11 02:37:14;;;;;;;2.30;2.07;;;;;;;;;;5134848;27;20198;-87
2022/01/11 02:39:45;;;;;;;1.37;1.27;;;;;;;;;;5134991;27;20195;-86
2022/01/11 02:42:12;;;;;;;1.40;1.30;;;;;;;;;;5134820;27;20186;-87
2022/01/11 02:44:40;;;;;;;1.50;1.40;;;;;;;;;;5134637;27;20663;-87
2022/01/11 02:47:07;;;;;;;3.23;1.13;;;;;;;;;;5134698;27;20179;-87
2022/01/11 02:49:35;;;;;;;1.30;1.20;;;;;;;;;;5134653;27;20736;-87
2022/01/11 02:52:02;;;;;;;1.37;1.20;;;;;;;;;;5134772;27;20202;-87
2022/01/11 02:54:29;;;;;;;1.60;1.50;;;;;;;;;;5134651;27;20187;-87
2022/01/11 02:56:58;;;;;;;1.40;1.30;;;;;;;;;;5134535;27;20218;-87
2022/01/11 02:59:26;;;;;;;0.90;0.90;;;;;;;;;;5134782;27;20197;-87
2022/01/11 03:01:53;;;;;;;1.30;1.20;;;;;;;;;;5134539;27;20195;-87
2022/01/11 03:04:20;;;;;;;1.33;1.20;;;;;;;;;;5134325;27;20233;-87
2022/01/11 03:06:48;;;;;;;0.80;0.80;;;;;;;;;;5134993;27;20677;-87
2022/01/11 03:09:15;;;;;;;0.80;0.80;;;;;;;;;;5134657;27;20222;-87
2022/01/11 03:11:43;;;;;;;2.57;1.93;;;;;;;;;;5134488;27;20221;-87
2022/01/11 03:14:12;;;;;;;1.37;1.27;;;;;;;;;;5134500;27;20557;-87
2022/01/11 03:16:40;;;;;;;1.17;1.10;;;;;;;;;;5134157;27;20226;-87
2022/01/11 03:19:07;;;;;;;1.40;1.30;;;;;;;;;;5134072;27;20198;-87
2022/01/11 03:21:34;;;;;;;1.37;1.27;;;;;;;;;;5134128;27;20229;-87
2022/01/11 03:24:02;;;;;;;1.27;1.20;;;;;;;;;;5134686;27;20191;-87
2022/01/11 03:26:30;;;;;;;1.87;1.30;;;;;;;;;;5134322;27;20633;-87
2022/01/11 03:28:57;;;;;;;2.20;2.00;;;;;;;;;;5133905;27;20249;-87
2022/01/11 03:31:27;;;;;;;1.10;1.10;;;;;;;;;;5134004;27;20199;-87
2022/01/11 03:33:54;;;;;;;1.40;1.20;;;;;;;;;;5134620;27;20198;-87
2022/01/11 03:36:21;;;;;;;1.30;1.23;;;;;;;;;;5133202;27;20225;-88
2022/01/11 03:38:49;;;;;;;1.30;1.17;;;;;;;;;;5134034;27;20285;-88
2022/01/11 03:41:16;;;;;;;1.30;1.20;;;;;;;;;;5134311;27;20590;-87
2022/01/11 03:43:44;;;;;;;2.30;1.30;;;;;;;;;;5134298;27;20293;-88
2022/01/11 03:46:11;;;;;;;1.10;1.10;;;;;;;;;;5133853;27;20229;-88
2022/01/11 03:48:40;;;;;;;0.83;0.83;;;;;;;;;;5133959;27;20243;-88
2022/01/11 03:51:07;;;;;;;1.13;1.07;;;;;;;;;;5134055;27;20194;-88
2022/01/11 03:53:49;;;;;;;1.03;1.03;;;;;;;;;;5133995;27;20190;-88
2022/01/11 03:56:23;;;;;;;1.47;1.10;;;;;;;;;;5134141;27;20262;-88
2022/01/11 03:58:51;;;;;;;1.53;1.40;;;;;;;;;;5134062;27;20617;-89
2022/01/11 04:01:19;;;;;;;0.90;0.90;;;;;;;;;;5133759;27;20193;-88
2022/01/11 04:03:49;;;;;;;1.20;1.20;;;;;;;;;;5133700;27;20243;-88
2022/01/11 04:06:17;;;;;;;1.60;1.50;;;;;;;;;;5133650;27;20256;-88
2022/01/11 04:08:45;;;;;;;1.20;1.10;;;;;;;;;;5133841;27;20198;-88
2022/01/11 04:11:13;;;;;;;1.17;1.07;;;;;;;;;;5133689;27;20230;-89
2022/01/11 04:13:40;;;;;;;1.07;1.07;;;;;;;;;;5133986;27;20194;-88
2022/01/11 04:16:08;;;;;;;0.93;0.93;;;;;;;;;;5133697;27;20256;-88
2022/01/11 04:18:35;;;;;;;1.10;1.00;;;;;;;;;;5133940;27;20195;-88
2022/01/11 04:21:05;;;;;;;1.37;1.27;;;;;;;;;;5133491;27;20186;-89
2022/01/11 04:23:33;;;;;;;1.50;1.37;;;;;;;;;;5118402;27;20195;-89
2022/01/11 04:26:01;;;;;;;1.03;1.00;;;;;;;;;;5112845;28;20196;-90
2022/01/11 04:28:28;;;;;;;1.13;1.13;;;;;;;;;;5112625;28;20201;-91
2022/01/11 04:30:59;;;;;;;1.30;1.20;;;;;;;;;;5112974;28;20196;-88
2022/01/11 04:33:27;;;;;;;1.43;1.20;;;;;;;;;;5113016;28;20195;-88
2022/01/11 04:35:54;;;;;;;1.40;1.30;;;;;;;;;;5112665;28;20280;-85
2022/01/11 04:38:25;;;;;;;1.37;1.27;;;;;;;;;;5112537;28;20192;-86
2022/01/11 04:40:53;;;;;;;1.77;1.67;;;;;;;;;;5111869;28;20662;-89
2022/01/11 04:43:20;;;;;;;1.30;1.20;;;;;;;;;;5112681;28;20200;-87
2022/01/11 04:45:48;;;;;;;2.00;1.90;;;;;;;;;;5112152;28;20227;-86
2022/01/11 04:48:15;;;;;;;1.80;1.33;;;;;;;;;;5116395;28;20200;-87
2022/01/11 04:50:45;;;;;;;2.13;1.50;;;;;;;;;;5120815;27;20202;-86
2022/01/11 04:53:12;;;;;;;1.43;1.33;;;;;;;;;;5136368;27;20613;-87
2022/01/11 04:55:41;;;;;;;1.67;1.53;;;;;;;;;;5136379;27;20218;-86
2022/01/11 04:58:08;;;;;;;1.50;1.40;;;;;;;;;;5136826;27;20258;-86
2022/01/11 05:00:36;;;;;;;1.43;1.33;;;;;;;;;;5136867;27;20302;-86
2022/01/11 05:03:04;;;;;;;1.90;1.67;;;;;;;;;;5136302;27;20287;-86
2022/01/11 05:05:31;;;;;;;1.40;1.30;;;;;;;;;;5136621;27;20228;-87
2022/01/11 05:08:01;;;;;;;1.87;1.77;;;;;;;;;;5137201;27;20205;-88
2022/01/11 05:10:29;;;;;;;1.87;1.40;;;;;;;;;;5136346;27;20229;-86
2022/01/11 05:13:35;;;;;;;1.40;1.30;;;;;;;;;;5135659;27;20693;-86
2022/01/11 05:16:03;;;;;;;1.60;1.50;;;;;;;;;;5132589;27;20310;-86
2022/01/11 05:18:31;;;;;;;1.73;1.40;;;;;;;;;;5135607;27;20195;-86
2022/01/11 05:20:58;;;;;;;1.53;1.43;;;;;;;;;;5135417;27;20281;-84
2022/01/11 05:23:25;;;;;;;1.40;1.30;;;;;;;;;;5135228;27;20191;-85
2022/01/11 05:25:52;;;;;;;1.80;1.50;;;;;;;;;;5135684;27;20574;-85
2022/01/11 05:28:21;;;;;;;1.77;1.67;;;;;;;;;;5135789;27;20715;-85
2022/01/11 05:30:49;;;;;;;1.50;1.40;;;;;;;;;;5135408;27;20689;-85
2022/01/11 05:33:16;;;;;;;1.87;1.77;;;;;;;;;;5135211;27;20584;-85
2022/01/11 05:35:44;;;;;;;1.90;1.80;;;;;;;;;;5136307;27;20190;-86
2022/01/11 05:38:11;;;;;;;2.30;2.10;;;;;;;;;;5135759;27;20235;-85
2022/01/11 05:40:39;;;;;;;2.50;1.40;;;;;;;;;;5135762;27;20222;-85
2022/01/11 05:43:07;;;;;;;1.63;1.53;;;;;;;;;;5135864;27;20198;-85
2022/01/11 05:45:35;;;;;;;3.03;2.57;;;;;;;;;;5135749;27;20223;-85
2022/01/11 05:48:03;;;;;;;1.50;1.40;;;;;;;;;;5135576;27;20201;-85
2022/01/11 05:50:31;;;;;;;3.03;1.57;;;;;;;;;;5135515;27;20199;-85
2022/01/11 05:52:58;;;;;;;1.70;1.60;;;;;;;;;;5135809;27;20584;-85
2022/01/11 05:55:26;;;;;;;1.70;1.60;;;;;;;;;;5134083;27;20198;-85
2022/01/11 05:57:53;;;;;;;2.10;1.90;;;;;;;;;;5134359;27;20218;-86
2022/01/11 06:00:22;;;;;;;1.87;1.77;;;;;;;;;;5135598;27;20580;-85
2022/01/11 06:02:54;;;;;;;1.97;1.77;;;;;;;;;;5135484;27;20576;-85
2022/01/11 06:05:21;;;;;;;1.70;1.60;;;;;;;;;;5135306;27;20283;-85
2022/01/11 06:07:49;;;;;;;2.83;2.57;;;;;;;;;;5135196;27;20190;-86
2022/01/11 06:10:16;;;;;;;1.60;1.50;;;;;;;;;;5135053;27;20289;-85
2022/01/11 06:12:43;;;;;;;2.20;1.83;;;;;;;;;;5132924;27;20206;-85
2022/01/11 06:15:10;;;;;;;1.67;1.57;;;;;;;;;;5129685;27;20206;-85
2022/01/11 06:17:38;;;;;;;1.50;1.40;;;;;;;;;;5115946;27;20580;-85
2022/01/11 06:20:08;;;;;;;2.00;1.90;;;;;;;;;;5114362;28;20192;-85
2022/01/11 06:22:36;;;;;;;2.27;1.57;;;;;;;;;;5114356;28;20266;-85
2022/01/11 06:25:04;;;;;;;1.40;1.30;;;;;;;;;;5114471;28;20567;-85
2022/01/11 06:27:32;;;;;;;2.30;1.73;;;;;;;;;;5114205;28;20198;-85
2022/01/11 06:29:59;;;;;;;1.40;1.20;;;;;;;;;;5114084;28;20192;-85
2022/01/11 06:32:26;;;;;;;1.50;1.40;;;;;;;;;;5114026;28;20734;-85
2022/01/11 06:34:55;;;;;;;1.70;1.20;;;;;;;;;;5114608;28;20728;-85
2022/01/11 06:37:24;;;;;;;2.33;2.13;;;;;;;;;;5113878;28;20269;-85
2022/01/11 06:39:51;;;;;;;1.30;1.27;;;;;;;;;;5113965;28;20290;-85
2022/01/11 06:42:19;;;;;;;1.20;1.10;;;;;;;;;;5113867;28;20575;-85
2022/01/11 06:44:47;;;;;;;1.40;1.30;;;;;;;;;;5113612;28;20202;-86
2022/01/11 06:47:15;;;;;;;1.63;1.50;;;;;;;;;;5113908;28;20231;-85
2022/01/11 06:49:42;;;;;;;1.60;1.50;;;;;;;;;;5113910;28;20578;-85
2022/01/11 06:52:09;;;;;;;1.50;1.40;;;;;;;;;;5116600;27;20634;-85
2022/01/11 06:54:38;;;;;;;1.60;1.50;;;;;;;;;;5125835;27;20218;-85
2022/01/11 06:57:05;;;;;;;1.20;1.10;;;;;;;;;;5113462;28;20778;-84
2022/01/11 06:59:35;;;;;;;2.00;1.53;;;;;;;;;;5113679;28;20202;-85
2022/01/11 07:02:02;;;;;;;1.50;1.40;;;;;;;;;;5113427;28;20237;-85
2022/01/11 07:04:29;;;;;;;1.67;1.57;;;;;;;;;;5113355;27;20191;-85
2022/01/11 07:06:57;;;;;;;1.40;1.30;;;;;;;;;;5113542;27;20682;-84
2022/01/11 07:09:24;;;;;;;1.40;1.30;;;;;;;;;;5113411;28;20200;-84
2022/01/11 07:11:53;;;;;;;1.50;1.40;;;;;;;;;;5113269;28;20191;-85
2022/01/11 07:14:20;;;;;;;1.10;1.10;;;;;;;;;;5113224;28;20191;-85
2022/01/11 07:16:48;;;;;;;2.13;2.03;;;;;;;;;;5113038;28;20229;-84
2022/01/11 07:19:16;;;;;;;2.00;1.90;;;;;;;;;;5113614;28;20327;-85
2022/01/11 07:21:44;;;;;;;1.80;1.70;;;;;;;;;;5113340;28;20199;-84
2022/01/11 07:24:12;;;;;;;1.47;1.37;;;;;;;;;;5113065;28;20198;-84
2022/01/11 07:26:39;;;;;;;1.50;1.40;;;;;;;;;;5113011;28;20202;-84
2022/01/11 07:29:07;;;;;;;1.40;1.30;;;;;;;;;;5113170;28;20675;-83
2022/01/11 07:31:36;;;;;;;1.40;1.30;;;;;;;;;;5112789;28;20202;-84
2022/01/11 07:34:04;;;;;;;1.70;1.60;;;;;;;;;;5111879;28;20199;-85
2022/01/11 07:36:31;;;;;;;1.20;1.20;;;;;;;;;;5111993;28;20275;-84
2022/01/11 07:38:58;;;;;;;1.37;1.27;;;;;;;;;;5112661;28;20187;-84
2022/01/11 07:41:26;;;;;;;1.00;1.00;;;;;;;;;;5112279;28;20201;-84
2022/01/11 07:43:53;;;;;;;1.37;1.27;;;;;;;;;;5112704;28;20199;-84
2022/01/11 07:46:23;;;;;;;1.27;1.17;;;;;;;;;;5112409;28;20238;-84
2022/01/11 07:48:52;;;;;;;8.30;6.60;;;;;;;;;;5112839;28;20180;-84
2022/01/11 07:51:20;;;;;;;4.53;2.70;;;;;;;;;;5112635;28;20195;-85
2022/01/11 07:53:47;;;;;;;2.60;2.40;;;;;;;;;;5117893;27;20200;-84
2022/01/11 07:56:14;;;;;;;3.00;2.70;;;;;;;;;;5121589;27;20279;-84
2022/01/11 07:58:41;;;;;;;2.47;2.10;;;;;;;;;;5112739;28;20226;-84
2022/01/11 08:01:08;;;;;;;1.80;1.70;;;;;;;;;;5112680;28;20200;-84
2022/01/11 08:03:37;;;;;;;2.10;1.60;;;;;;;;;;5112641;28;20699;-84
2022/01/11 08:06:05;;;;;;;2.30;2.10;;;;;;;;;;5112368;28;20195;-84
2022/01/11 08:08:32;;;;;;;1.20;1.20;;;;;;;;;;5112450;28;20279;-84
2022/01/11 08:11:00;;;;;;;1.83;1.73;;;;;;;;;;5112330;28;20286;-84
2022/01/11 08:13:27;;;;;;;2.13;1.97;;;;;;;;;;5112272;28;20252;-84
2022/01/11 08:15:54;;;;;;;1.83;1.73;;;;;;;;;;5112292;28;20187;-84
2022/01/11 08:18:21;;;;;;;2.10;1.90;;;;;;;;;;5112200;28;20309;-84
2022/01/11 08:20:50;;;;;;;2.20;1.60;;;;;;;;;;5112536;28;20199;-84
2022/01/11 08:23:17;;;;;;;3.20;2.90;;;;;;;;;;5116785;28;20576;-83
2022/01/11 08:25:45;;;;;;;4.87;4.17;;;;;;;;;;5116674;28;20200;-84
2022/01/11 08:28:12;;;;;;;3.13;2.77;;;;;;;;;;5116344;28;20194;-84
2022/01/11 08:30:39;;;;;;;2.40;2.07;;;;;;;;;;5116299;28;20198;-83
2022/01/11 08:33:09;;;;;;;1.60;1.50;;;;;;;;;;5116187;28;20199;-84
2022/01/11 08:35:37;;;;;;;3.13;2.80;;;;;;;;;;5116209;28;20725;-84
2022/01/11 08:38:05;;;;;;;1.60;1.50;;;;;;;;;;5116436;28;20223;-83
2022/01/11 08:40:32;;;;;;;2.37;1.97;;;;;;;;;;5116433;28;20202;-84
2022/01/11 08:43:02;;;;;;;6.43;3.70;;;;;;;;;;5116027;27;20710;-84
2022/01/11 08:45:30;;;;;;;2.53;2.33;;;;;;;;;;5116386;28;20307;-84
2022/01/11 08:47:57;;;;;;;1.70;1.47;;;;;;;;;;5116496;28;20195;-84
2022/01/11 08:50:24;;;;;;;1.50;1.40;;;;;;;;;;5116000;28;20195;-84
2022/01/11 08:52:52;;;;;;;3.80;3.50;;;;;;;;;;5118155;27;20706;-84
2022/01/11 08:55:20;;;;;;;3.77;3.43;;;;;;;;;;5125113;27;20196;-84
2022/01/11 08:57:48;;;;;;;2.40;1.70;;;;;;;;;;5115976;28;20215;-84
2022/01/11 09:00:18;;;;;;;1.60;1.50;;;;;;;;;;5116107;28;20184;-83
2022/01/11 09:02:46;;;;;;;1.70;1.60;;;;;;;;;;5115689;28;20180;-84
2022/01/11 09:05:13;;;;;;;3.33;2.57;;;;;;;;;;5115805;28;20306;-84
2022/01/11 09:07:41;;;;;;;1.63;1.40;;;;;;;;;;5115734;28;20252;-84
2022/01/11 09:10:09;;;;;;;1.67;1.57;;;;;;;;;;5115564;28;20194;-84
2022/01/11 09:12:38;;;;;;;3.00;2.80;;;;;;;;;;5115581;28;20203;-84
2022/01/11 09:15:07;;;;;;;4.00;3.50;;;;;;;;;;5115657;28;20192;-84
2022/01/11 09:17:34;;;;;;;1.73;1.63;;;;;;;;;;5115323;28;20227;-84
2022/01/11 09:20:01;;;;;;;1.90;1.80;;;;;;;;;;5115335;28;20195;-83
2022/01/11 09:22:28;;;;;;;3.03;2.73;;;;;;;;;;5115424;28;20194;-83
2022/01/11 09:24:56;;;;;;;4.20;3.80;;;;;;;;;;5115650;28;20279;-83
2022/01/11 09:27:23;;;;;;;3.23;2.80;;;;;;;;;;5115507;28;20195;-84
2022/01/11 09:29:52;;;;;;;1.80;1.70;;;;;;;;;;5115179;28;20195;-83
2022/01/11 09:32:19;;;;;;;2.10;1.90;;;;;;;;;;5114592;28;20553;-83
2022/01/11 09:34:46;;;;;;;2.40;2.20;;;;;;;;;;5114382;28;20195;-83
2022/01/11 09:37:13;;;;;;;3.50;2.40;;;;;;;;;;5114902;28;20198;-83
2022/01/11 09:39:43;;;;;;;4.53;3.83;;;;;;;;;;5115387;28;20199;-83
2022/01/11 09:42:11;;;;;;;3.10;2.80;;;;;;;;;;5115052;28;20207;-83
2022/01/11 09:44:39;;;;;;;3.00;2.53;;;;;;;;;;5114625;28;20196;-83
2022/01/11 09:47:11;;;;;;;2.43;2.23;;;;;;;;;;5114912;28;20184;-83
2022/01/11 09:49:38;;;;;;;2.10;1.97;;;;;;;;;;5114809;28;20180;-83
2022/01/11 09:52:07;;;;;;;2.10;2.00;;;;;;;;;;5114728;28;20192;-83
2022/01/11 09:54:35;;;;;;;4.00;3.70;;;;;;;;;;5124451;27;20655;-83
2022/01/11 09:57:03;;;;;;;6.53;4.90;;;;;;;;;;5116366;27;20208;-83
2022/01/11 09:59:31;;;;;;;2.40;2.20;;;;;;;;;;5114939;28;20203;-83
2022/01/11 10:01:58;;;;;;;1.80;1.70;;;;;;;;;;5114535;28;20225;-83
2022/01/11 10:04:29;;;;;;;3.10;2.80;;;;;;;;;;5114709;28;20664;-83
2022/01/11 10:06:59;;;;;;;2.73;2.40;;;;;;;;;;5114496;28;20245;-83
2022/01/11 10:09:29;;;;;;;4.60;4.20;;;;;;;;;;5114371;28;20195;-84
2022/01/11 10:11:57;;;;;;;4.67;3.87;;;;;;;;;;5114342;28;20231;-84
2022/01/11 10:14:29;;;;;;;4.13;3.57;;;;;;;;;;5114753;28;20630;-84
2022/01/11 10:17:09;;;;;;;5.53;4.87;;;;;;;;;;5114276;28;20180;-84
2022/01/11 10:19:39;;;;;;;3.27;2.97;;;;;;;;;;5114407;28;20272;-84
2022/01/11 10:22:08;;;;;;;7.57;5.47;;;;;;;;;;5114864;28;20203;-84
2022/01/11 10:24:38;;;;;;;6.67;4.43;;;;;;;;;;5114502;28;20660;-84
2022/01/11 10:27:07;;;;;;;6.53;4.47;;;;;;;;;;5114343;27;20540;-84
2022/01/11 10:29:37;;;;;;;5.33;4.23;;;;;;;;;;5114603;28;20237;-84
2022/01/11 10:32:18;;;;;;;3.53;2.70;;;;;;;;;;5114063;28;20184;-84
2022/01/11 10:34:49;;;;;;;2.90;2.23;;;;;;;;;;5113948;27;20223;-84
2022/01/11 10:37:18;;;;;;;6.43;4.30;;;;;;;;;;5113814;28;20184;-84
2022/01/11 10:39:46;;;;;;;2.60;2.40;;;;;;;;;;5113743;28;20195;-84
2022/01/11 10:42:28;;;;;;;2.80;2.50;;;;;;;;;;5113662;28;20206;-84
2022/01/11 10:44:58;;;;;;;2.83;2.53;;;;;;;;;;5113391;28;20310;-84
2022/01/11 10:47:28;;;;;;;2.43;2.23;;;;;;;;;;5113909;28;20316;-83
2022/01/11 10:50:01;;;;;;;2.37;2.17;;;;;;;;;;5113546;28;20282;-84
2022/01/11 10:52:31;;;;;;;2.87;2.20;;;;;;;;;;5116938;27;20199;-84
2022/01/11 10:54:59;;;;;;;2.87;2.47;;;;;;;;;;5121494;27;20585;-84
2022/01/11 10:57:28;;;;;;;2.87;2.57;;;;;;;;;;5113371;28;20210;-84
2022/01/11 11:00:24;;;;;;;2.73;2.53;;;;;;;;;;5113304;28;20188;-84
2022/01/11 11:03:00;;;;;;;2.87;2.57;;;;;;;;;;5113301;28;20195;-84
2022/01/11 11:05:33;;;;;;;2.73;2.53;;;;;;;;;;5113423;28;20180;-84
2022/01/11 11:08:04;;;;;;;3.17;2.87;;;;;;;;;;5113303;28;20180;-84
2022/01/11 11:10:49;;;;;;;4.00;3.23;;;;;;;;;;5113260;28;20187;-84
2022/01/11 11:13:25;;;;;;;3.23;2.93;;;;;;;;;;5113181;28;20190;-84
2022/01/11 11:15:54;;;;;;;3.03;2.70;;;;;;;;;;5113216;28;20198;-84
2022/01/11 11:18:27;;;;;;;3.30;3.00;;;;;;;;;;5112919;28;20227;-84
2022/01/11 11:20:57;;;;;;;7.37;6.43;;;;;;;;;;5113064;28;20250;-84
2022/01/11 11:23:24;;;;;;;5.23;4.73;;;;;;;;;;5113009;28;20195;-83
2022/01/11 11:25:52;;;;;;;5.87;4.63;;;;;;;;;;5113022;28;20191;-84
2022/01/11 11:28:21;;;;;;;5.77;5.17;;;;;;;;;;5113218;28;20575;-84
2022/01/11 11:30:50;;;;;;;7.23;6.23;;;;;;;;;;5113200;28;20199;-84
2022/01/11 11:33:19;;;;;;;9.67;6.67;;;;;;;;;;5112835;28;20191;-84
2022/01/11 11:35:49;;;;;;;5.13;4.57;;;;;;;;;;5112770;28;20199;-84
2022/01/11 11:38:19;;;;;;;6.23;4.53;;;;;;;;;;5112995;28;20207;-84
2022/01/11 11:40:51;;;;;;;4.90;4.37;;;;;;;;;;5112748;28;20198;-83
2022/01/11 11:43:19;;;;;;;6.27;5.37;;;;;;;;;;5112690;28;20180;-84
2022/01/11 11:45:46;;;;;;;5.00;4.57;;;;;;;;;;5112444;28;20742;-83
2022/01/11 11:48:16;;;;;;;5.70;5.10;;;;;;;;;;5112626;28;20187;-84
2022/01/11 11:50:52;;;;;;;5.97;5.37;;;;;;;;;;5112884;28;20289;-84
2022/01/11 11:53:26;;;;;;;9.07;4.80;;;;;;;;;;5112539;28;20192;-84
2022/01/11 11:56:16;;;;;;;6.30;5.33;;;;;;;;;;5114398;28;20198;-84
2022/01/11 11:58:45;;;;;;;7.60;5.30;;;;;;;;;;5132968;27;20213;-84
2022/01/11 12:01:45;;;;;;;7.47;5.47;;;;;;;;;;5132997;27;20203;-84
2022/01/11 12:04:13;;;;;;;7.80;6.17;;;;;;;;;;5132975;27;20187;-84
2022/01/11 12:06:41;;;;;;;6.90;5.80;;;;;;;;;;5133006;27;20189;-83
2022/01/11 12:09:11;;;;;;;7.27;5.80;;;;;;;;;;5132986;27;20251;-84
2022/01/11 12:11:42;;;;;;;6.67;5.50;;;;;;;;;;5133440;27;20573;-83
2022/01/11 12:14:10;;;;;;;5.73;4.80;;;;;;;;;;5132890;27;20194;-84
2022/01/11 12:16:41;;;;;;;9.87;5.23;;;;;;;;;;5132856;27;20209;-84
2022/01/11 12:19:45;;;;;;;6.93;5.20;;;;;;;;;;5133049;27;20574;-84
2022/01/11 12:22:17;;;;;;;5.33;4.60;;;;;;;;;;5132806;27;20193;-84
2022/01/11 12:24:47;;;;;;;5.30;4.80;;;;;;;;;;5132746;27;20195;-84
2022/01/11 12:27:16;;;;;;;6.27;5.47;;;;;;;;;;5132793;27;20182;-84
2022/01/11 12:29:54;;;;;;;6.87;5.33;;;;;;;;;;5132973;27;20223;-84
2022/01/11 12:32:23;;;;;;;6.33;5.03;;;;;;;;;;5132906;27;20274;-84
2022/01/11 12:34:56;;;;;;;4.83;4.37;;;;;;;;;;5132989;27;20187;-84
2022/01/11 12:37:28;;;;;;;5.70;5.20;;;;;;;;;;5133046;27;20194;-84
2022/01/11 12:40:06;;;;;;;5.67;4.90;;;;;;;;;;5132542;27;20218;-84
2022/01/11 12:42:34;;;;;;;6.23;4.30;;;;;;;;;;5132639;27;20193;-85
2022/01/11 12:47:49;;;;;;;5.97;5.13;;;;;;;;;;5105998;27;20195;-84
2022/01/11 12:50:17;;;;;;;6.10;5.50;;;;;;;;;;5132548;27;20286;-84
2022/01/11 12:52:46;;;;;;;7.37;5.93;;;;;;;;;;5132489;27;20282;-84
2022/01/11 12:55:15;;;;;;;8.50;4.97;;;;;;;;;;5132735;27;20230;-84
2022/01/11 12:57:42;;;;;;;11.97;7.67;;;;;;;;;;5124226;27;20206;-84
2022/01/11 13:00:12;;;;;;;6.93;5.60;;;;;;;;;;5117036;27;20223;-84
2022/01/11 13:02:39;;;;;;;6.70;5.87;;;;;;;;;;5112039;28;20206;-84
2022/01/11 13:05:08;;;;;;;7.30;5.93;;;;;;;;;;5111926;28;20191;-84
2022/01/11 13:07:37;;;;;;;7.43;5.23;;;;;;;;;;5113010;28;20200;-85
2022/01/11 13:10:16;;;;;;;9.20;7.23;;;;;;;;;;5115876;27;20199;-84
2022/01/11 13:12:48;;;;;;;9.73;7.53;;;;;;;;;;5115516;28;20188;-84
2022/01/11 13:15:19;;;;;;;15.27;9.93;;;;;;;;;;5115809;28;20271;-85
2022/01/11 13:17:56;;;;;;;6.63;6.03;;;;;;;;;;5115792;28;20624;-84
2022/01/11 13:20:24;;;;;;;5.73;5.13;;;;;;;;;;5115299;28;20211;-84
2022/01/11 13:23:05;;;;;;;6.20;4.93;;;;;;;;;;5115707;28;20572;-84
2022/01/11 13:25:43;;;;;;;8.23;5.37;;;;;;;;;;5115269;28;20709;-84
2022/01/11 13:28:10;;;;;;;7.43;6.20;;;;;;;;;;5115274;28;20184;-84
2022/01/11 13:30:41;;;;;;;5.73;4.87;;;;;;;;;;5115180;28;20200;-84
2022/01/11 13:33:09;;;;;;;6.03;5.40;;;;;;;;;;5115356;28;20184;-84
2022/01/11 13:35:36;;;;;;;5.30;4.57;;;;;;;;;;5115060;28;20195;-85
2022/01/11 13:38:14;;;;;;;8.20;5.90;;;;;;;;;;5115307;28;20190;-84
2022/01/11 13:40:45;;;;;;;6.27;5.50;;;;;;;;;;5115247;27;20276;-83
2022/01/11 13:43:13;;;;;;;6.23;5.07;;;;;;;;;;5114988;28;20183;-84
2022/01/11 13:45:43;;;;;;;7.37;5.60;;;;;;;;;;5114910;28;20666;-84
2022/01/11 13:48:16;;;;;;;5.23;4.60;;;;;;;;;;5115004;28;20198;-85
2022/01/11 13:50:51;;;;;;;8.87;5.47;;;;;;;;;;5115205;28;20182;-84
2022/01/11 13:53:23;;;;;;;7.37;6.20;;;;;;;;;;5114862;28;20197;-85
2022/01/11 13:55:53;;;;;;;7.83;5.07;;;;;;;;;;5114970;28;20659;-85
2022/01/11 13:58:21;;;;;;;6.63;5.67;;;;;;;;;;5125920;27;20202;-85
2022/01/11 14:00:48;;;;;;;6.03;5.20;;;;;;;;;;5135485;27;20194;-84
2022/01/11 14:03:17;;;;;;;6.60;5.73;;;;;;;;;;5135095;27;20195;-84
2022/01/11 14:05:45;;;;;;;5.80;5.10;;;;;;;;;;5135366;27;20573;-84
2022/01/11 14:08:12;;;;;;;6.90;6.17;;;;;;;;;;5135086;27;20226;-84
2022/01/11 14:10:52;;;;;;;7.30;5.70;;;;;;;;;;5134985;27;20226;-84
2022/01/11 14:13:21;;;;;;;5.30;4.80;;;;;;;;;;5135035;27;20203;-84
2022/01/11 14:15:49;;;;;;;6.23;5.47;;;;;;;;;;5134921;27;20194;-84
2022/01/11 14:18:18;;;;;;;6.23;5.63;;;;;;;;;;5134773;27;20736;-84
2022/01/11 14:20:45;;;;;;;22.57;15.17;;;;;;;;;;5134109;27;20215;-84
2022/01/11 14:23:14;;;;;;;10.53;6.40;;;;;;;;;;5134722;27;20195;-84
2022/01/11 14:25:43;;;;;;;6.60;5.17;;;;;;;;;;5135073;27;20191;-84
2022/01/11 14:28:12;;;;;;;8.30;5.03;;;;;;;;;;5134686;27;20281;-84
2022/01/11 14:30:43;;;;;;;6.67;5.57;;;;;;;;;;5134842;27;20270;-84
2022/01/11 14:33:15;;;;;;;6.07;4.87;;;;;;;;;;5134628;27;20191;-84
2022/01/11 14:35:42;;;;;;;5.33;4.83;;;;;;;;;;5134502;27;20255;-83
2022/01/11 14:38:13;;;;;;;5.50;4.93;;;;;;;;;;5134621;27;20214;-84
2022/01/11 14:40:43;;;;;;;7.30;5.50;;;;;;;;;;5134657;27;20631;-84
2022/01/11 14:43:13;;;;;;;5.73;4.53;;;;;;;;;;5134716;27;20238;-83
2022/01/11 14:45:44;;;;;;;5.97;4.40;;;;;;;;;;5134424;27;20475;-84
2022/01/11 14:48:12;;;;;;;5.07;4.57;;;;;;;;;;5134390;27;20183;-84
2022/01/11 14:50:39;;;;;;;5.17;4.47;;;;;;;;;;5134334;27;20201;-84
2022/01/11 14:53:08;;;;;;;7.17;5.57;;;;;;;;;;5134100;27;20198;-84
2022/01/11 14:55:49;;;;;;;4.87;4.37;;;;;;;;;;5134032;27;20713;-85
2022/01/11 14:58:18;;;;;;;7.10;5.23;;;;;;;;;;5127602;27;20278;-84
2022/01/11 15:00:50;;;;;;;4.87;4.37;;;;;;;;;;5113695;27;20481;-84